This is the latest recevied weather packets stored in our database for station/object W1CAT. If no packets are shown the sender has not sent any weather packets the latest 1 day(s).
| Time | Temp. | Humidity | Pressure | Rain* | Wind** | Luminosity | Snow |
|---|---|---|---|---|---|---|---|
| 1778003773 | 15° C | 39% | - | 0 mm | 1.34 m/s, 181° | - | - |
| 1778003470 | 14.44° C | 40% | - | 0 mm | 1.34 m/s, 109° | - | - |
| 1778003166 | 14.44° C | 40% | - | 0 mm | 0.89 m/s, 143° | - | - |
| 1778002862 | 13.89° C | 39% | - | 0 mm | 0.45 m/s, 153° | - | - |
| 1778002559 | 14.44° C | 39% | - | 0 mm | 0.89 m/s, 176° | - | - |
| 1778002256 | 13.89° C | 38% | - | 0 mm | 0.45 m/s, 107° | - | - |
| 1778001954 | 13.89° C | 42% | - | 0 mm | 0.45 m/s, 173° | - | - |
| 1778001650 | 14.44° C | 38% | - | 0 mm | 1.79 m/s, 159° | - | - |
| 1778001344 | 15° C | 37% | - | 0 mm | 0.45 m/s, 139° | - | - |
| 1778001042 | 16.67° C | 33% | - | 0 mm | 1.34 m/s, 171° | - | - |
| 1778000733 | 16.67° C | 34% | - | 0 mm | 0.45 m/s, 170° | - | - |
| 1778000429 | 16.67° C | 32% | - | 0 mm | 1.34 m/s, 107° | - | - |
| 1778000125 | 16.67° C | 33% | - | 0 mm | 1.34 m/s, 176° | - | - |
| 1777999820 | 16.67° C | 34% | - | 0 mm | 0.89 m/s, 88° | - | - |
| 1777999517 | 18.33° C | 32% | - | 0 mm | 0.45 m/s, 74° | - | - |
| 1777999215 | 18.89° C | 33% | - | 0 mm | 0.45 m/s, 128° | - | - |
| 1777998913 | 18.33° C | 32% | - | 0 mm | 0 m/s | - | - |
| 1777998609 | 16.67° C | 34% | - | 0 mm | 1.34 m/s, 176° | - | - |
| 1777998297 | 16.67° C | 36% | - | 0 mm | 0.45 m/s, 129° | - | - |
| 1777997994 | 16.67° C | 36% | - | 0 mm | 0.89 m/s, 115° | - | - |
| 1777997691 | 15.56° C | 39% | - | 0 mm | 0.89 m/s, 75° | - | - |
| 1777997388 | 15° C | 40% | - | 0 mm | 1.34 m/s, 108° | - | - |
| 1777997086 | 15° C | 42% | - | 0 mm | 0.89 m/s, 181° | - | - |
| 1777996782 | 15° C | 43% | - | 0 mm | 0 m/s | - | - |
| 1777996479 | 13.89° C | 46% | - | 0 mm | 1.34 m/s, 162° | - | - |
* Rain latest hour (hover to see other rain measurements)
** Current wind speed in m/s (hover to see current wind gust speed)